sensor_id;sensor_type;location;lat;lon;timestamp;P1;durP1;ratioP1;P2;durP2;ratioP2
33491;SDS011;20010;51.488;7.232;2023-06-10T00:00:07;12.05;;;11.23;;
33491;SDS011;20010;51.488;7.232;2023-06-10T00:02:34;11.75;;;10.95;;
33491;SDS011;20010;51.488;7.232;2023-06-10T00:05:01;11.85;;;10.93;;
33491;SDS011;20010;51.488;7.232;2023-06-10T00:07:28;12.23;;;11.23;;
33491;SDS011;20010;51.488;7.232;2023-06-10T00:09:55;12.88;;;11.98;;
33491;SDS011;20010;51.488;7.232;2023-06-10T00:12:21;12.18;;;11.27;;
33491;SDS011;20010;51.488;7.232;2023-06-10T00:14:48;12.13;;;11.32;;
33491;SDS011;20010;51.488;7.232;2023-06-10T00:17:17;13.05;;;12.13;;
33491;SDS011;20010;51.488;7.232;2023-06-10T00:19:44;12.48;;;11.63;;
33491;SDS011;20010;51.488;7.232;2023-06-10T00:22:13;12.20;;;11.40;;
33491;SDS011;20010;51.488;7.232;2023-06-10T00:24:40;11.90;;;11.00;;
33491;SDS011;20010;51.488;7.232;2023-06-10T00:27:08;12.63;;;11.55;;
33491;SDS011;20010;51.488;7.232;2023-06-10T00:29:34;12.23;;;11.32;;
33491;SDS011;20010;51.488;7.232;2023-06-10T00:32:01;13.43;;;12.25;;
33491;SDS011;20010;51.488;7.232;2023-06-10T00:34:28;12.77;;;11.80;;
33491;SDS011;20010;51.488;7.232;2023-06-10T00:36:55;12.77;;;11.85;;
33491;SDS011;20010;51.488;7.232;2023-06-10T00:39:21;12.70;;;11.90;;
33491;SDS011;20010;51.488;7.232;2023-06-10T00:41:49;12.93;;;12.07;;
33491;SDS011;20010;51.488;7.232;2023-06-10T00:44:16;13.20;;;12.07;;
33491;SDS011;20010;51.488;7.232;2023-06-10T00:46:42;12.50;;;11.57;;
33491;SDS011;20010;51.488;7.232;2023-06-10T00:49:09;12.45;;;11.45;;
33491;SDS011;20010;51.488;7.232;2023-06-10T00:51:36;13.60;;;12.70;;
33491;SDS011;20010;51.488;7.232;2023-06-10T00:54:03;13.13;;;12.23;;
33491;SDS011;20010;51.488;7.232;2023-06-10T00:56:29;12.82;;;11.82;;
33491;SDS011;20010;51.488;7.232;2023-06-10T00:58:56;13.30;;;12.10;;
33491;SDS011;20010;51.488;7.232;2023-06-10T01:01:23;14.27;;;13.18;;
33491;SDS011;20010;51.488;7.232;2023-06-10T01:03:51;13.63;;;12.68;;
33491;SDS011;20010;51.488;7.232;2023-06-10T01:08:55;13.07;;;12.18;;
33491;SDS011;20010;51.488;7.232;2023-06-10T01:11:30;13.85;;;12.85;;
33491;SDS011;20010;51.488;7.232;2023-06-10T01:14:10;13.55;;;12.50;;
33491;SDS011;20010;51.488;7.232;2023-06-10T01:16:38;13.18;;;12.27;;
33491;SDS011;20010;51.488;7.232;2023-06-10T01:19:07;14.80;;;13.63;;
33491;SDS011;20010;51.488;7.232;2023-06-10T01:21:34;13.55;;;12.50;;
33491;SDS011;20010;51.488;7.232;2023-06-10T01:24:01;12.60;;;11.70;;
33491;SDS011;20010;51.488;7.232;2023-06-10T01:26:29;14.57;;;13.27;;
33491;SDS011;20010;51.488;7.232;2023-06-10T01:28:58;13.18;;;12.20;;
33491;SDS011;20010;51.488;7.232;2023-06-10T01:34:07;13.90;;;12.93;;
33491;SDS011;20010;51.488;7.232;2023-06-10T01:36:37;13.77;;;12.65;;
33491;SDS011;20010;51.488;7.232;2023-06-10T01:39:04;14.10;;;13.13;;
33491;SDS011;20010;51.488;7.232;2023-06-10T01:41:32;13.93;;;12.93;;
33491;SDS011;20010;51.488;7.232;2023-06-10T01:43:59;14.43;;;13.23;;
33491;SDS011;20010;51.488;7.232;2023-06-10T01:46:26;13.55;;;12.55;;
33491;SDS011;20010;51.488;7.232;2023-06-10T01:48:52;13.68;;;12.70;;
33491;SDS011;20010;51.488;7.232;2023-06-10T01:51:19;14.43;;;13.43;;
33491;SDS011;20010;51.488;7.232;2023-06-10T01:53:46;14.45;;;13.40;;
33491;SDS011;20010;51.488;7.232;2023-06-10T01:56:12;13.90;;;12.75;;
33491;SDS011;20010;51.488;7.232;2023-06-10T01:58:45;14.23;;;13.23;;
33491;SDS011;20010;51.488;7.232;2023-06-10T02:01:13;14.25;;;13.20;;
33491;SDS011;20010;51.488;7.232;2023-06-10T02:03:40;15.55;;;14.45;;
33491;SDS011;20010;51.488;7.232;2023-06-10T02:06:06;14.85;;;13.85;;
33491;SDS011;20010;51.488;7.232;2023-06-10T02:08:33;15.18;;;14.02;;
33491;SDS011;20010;51.488;7.232;2023-06-10T02:11:00;16.67;;;15.27;;
33491;SDS011;20010;51.488;7.232;2023-06-10T02:13:26;14.77;;;13.73;;
33491;SDS011;20010;51.488;7.232;2023-06-10T02:15:53;14.40;;;13.32;;
33491;SDS011;20010;51.488;7.232;2023-06-10T02:18:20;14.93;;;13.65;;
33491;SDS011;20010;51.488;7.232;2023-06-10T02:20:47;14.80;;;13.80;;
33491;SDS011;20010;51.488;7.232;2023-06-10T02:23:13;14.80;;;13.70;;
33491;SDS011;20010;51.488;7.232;2023-06-10T02:25:40;16.55;;;15.38;;
33491;SDS011;20010;51.488;7.232;2023-06-10T02:28:06;15.43;;;14.18;;
33491;SDS011;20010;51.488;7.232;2023-06-10T02:30:33;16.38;;;14.73;;
33491;SDS011;20010;51.488;7.232;2023-06-10T02:32:59;17.65;;;16.30;;
33491;SDS011;20010;51.488;7.232;2023-06-10T02:35:27;16.60;;;15.40;;
33491;SDS011;20010;51.488;7.232;2023-06-10T02:37:54;15.88;;;14.55;;
33491;SDS011;20010;51.488;7.232;2023-06-10T02:40:20;15.38;;;14.38;;
33491;SDS011;20010;51.488;7.232;2023-06-10T02:42:47;15.32;;;14.23;;
33491;SDS011;20010;51.488;7.232;2023-06-10T02:45:14;15.35;;;14.25;;
33491;SDS011;20010;51.488;7.232;2023-06-10T02:47:41;16.20;;;15.05;;
33491;SDS011;20010;51.488;7.232;2023-06-10T02:50:08;15.68;;;14.48;;
33491;SDS011;20010;51.488;7.232;2023-06-10T02:52:34;15.23;;;14.20;;
33491;SDS011;20010;51.488;7.232;2023-06-10T02:55:01;15.80;;;14.75;;
33491;SDS011;20010;51.488;7.232;2023-06-10T02:57:27;17.50;;;15.90;;
33491;SDS011;20010;51.488;7.232;2023-06-10T02:59:54;17.48;;;16.20;;
33491;SDS011;20010;51.488;7.232;2023-06-10T03:02:21;18.00;;;16.33;;
33491;SDS011;20010;51.488;7.232;2023-06-10T03:04:47;16.92;;;15.73;;
33491;SDS011;20010;51.488;7.232;2023-06-10T03:07:16;16.52;;;15.30;;
33491;SDS011;20010;51.488;7.232;2023-06-10T03:09:44;17.83;;;16.42;;
33491;SDS011;20010;51.488;7.232;2023-06-10T03:12:11;17.85;;;16.45;;
33491;SDS011;20010;51.488;7.232;2023-06-10T03:14:37;18.35;;;16.95;;
33491;SDS011;20010;51.488;7.232;2023-06-10T03:17:05;17.80;;;16.45;;
33491;SDS011;20010;51.488;7.232;2023-06-10T03:19:32;18.77;;;17.38;;
33491;SDS011;20010;51.488;7.232;2023-06-10T03:22:09;20.10;;;18.33;;
33491;SDS011;20010;51.488;7.232;2023-06-10T03:24:37;16.90;;;15.75;;
33491;SDS011;20010;51.488;7.232;2023-06-10T03:27:09;18.58;;;17.05;;
33491;SDS011;20010;51.488;7.232;2023-06-10T03:29:37;19.10;;;17.50;;
33491;SDS011;20010;51.488;7.232;2023-06-10T03:32:04;18.85;;;17.45;;
33491;SDS011;20010;51.488;7.232;2023-06-10T03:34:30;20.05;;;18.45;;
33491;SDS011;20010;51.488;7.232;2023-06-10T03:36:57;19.48;;;17.90;;
33491;SDS011;20010;51.488;7.232;2023-06-10T03:39:25;20.15;;;18.38;;
33491;SDS011;20010;51.488;7.232;2023-06-10T03:41:52;18.65;;;17.20;;
33491;SDS011;20010;51.488;7.232;2023-06-10T03:44:18;19.15;;;17.70;;
33491;SDS011;20010;51.488;7.232;2023-06-10T03:46:54;19.45;;;17.70;;
33491;SDS011;20010;51.488;7.232;2023-06-10T03:49:21;19.10;;;17.75;;
33491;SDS011;20010;51.488;7.232;2023-06-10T03:51:53;18.52;;;17.10;;
33491;SDS011;20010;51.488;7.232;2023-06-10T03:54:20;18.38;;;16.98;;
33491;SDS011;20010;51.488;7.232;2023-06-10T03:56:47;18.40;;;16.88;;
33491;SDS011;20010;51.488;7.232;2023-06-10T03:59:16;17.67;;;16.25;;
33491;SDS011;20010;51.488;7.232;2023-06-10T04:01:43;17.73;;;16.23;;
33491;SDS011;20010;51.488;7.232;2023-06-10T04:04:13;17.13;;;15.73;;
33491;SDS011;20010;51.488;7.232;2023-06-10T04:06:42;17.77;;;16.38;;
33491;SDS011;20010;51.488;7.232;2023-06-10T04:09:10;17.75;;;16.13;;
33491;SDS011;20010;51.488;7.232;2023-06-10T04:11:37;17.35;;;15.85;;
33491;SDS011;20010;51.488;7.232;2023-06-10T04:14:04;17.25;;;15.85;;
33491;SDS011;20010;51.488;7.232;2023-06-10T04:16:31;16.00;;;14.75;;
33491;SDS011;20010;51.488;7.232;2023-06-10T04:18:58;16.20;;;14.90;;
33491;SDS011;20010;51.488;7.232;2023-06-10T04:21:27;15.50;;;14.27;;
33491;SDS011;20010;51.488;7.232;2023-06-10T04:23:53;15.80;;;14.60;;
33491;SDS011;20010;51.488;7.232;2023-06-10T04:26:20;17.17;;;15.63;;
33491;SDS011;20010;51.488;7.232;2023-06-10T04:28:46;15.52;;;14.18;;
33491;SDS011;20010;51.488;7.232;2023-06-10T04:31:13;14.75;;;13.55;;
33491;SDS011;20010;51.488;7.232;2023-06-10T04:33:40;14.90;;;13.60;;
33491;SDS011;20010;51.488;7.232;2023-06-10T04:36:06;14.98;;;13.40;;
33491;SDS011;20010;51.488;7.232;2023-06-10T04:38:33;14.57;;;13.38;;
33491;SDS011;20010;51.488;7.232;2023-06-10T04:40:59;14.75;;;13.55;;
33491;SDS011;20010;51.488;7.232;2023-06-10T04:43:26;15.27;;;14.18;;
33491;SDS011;20010;51.488;7.232;2023-06-10T04:45:55;17.35;;;15.75;;
33491;SDS011;20010;51.488;7.232;2023-06-10T04:48:21;16.90;;;15.50;;
33491;SDS011;20010;51.488;7.232;2023-06-10T04:50:51;14.50;;;13.32;;
33491;SDS011;20010;51.488;7.232;2023-06-10T04:53:17;14.90;;;13.70;;
33491;SDS011;20010;51.488;7.232;2023-06-10T04:55:44;16.25;;;15.05;;
33491;SDS011;20010;51.488;7.232;2023-06-10T04:58:11;14.88;;;13.60;;
33491;SDS011;20010;51.488;7.232;2023-06-10T05:00:38;15.10;;;14.00;;
33491;SDS011;20010;51.488;7.232;2023-06-10T05:03:05;12.85;;;11.85;;
33491;SDS011;20010;51.488;7.232;2023-06-10T05:05:31;15.00;;;13.70;;
33491;SDS011;20010;51.488;7.232;2023-06-10T05:07:58;15.48;;;14.10;;
33491;SDS011;20010;51.488;7.232;2023-06-10T05:10:25;13.30;;;12.25;;
33491;SDS011;20010;51.488;7.232;2023-06-10T05:12:52;14.48;;;13.20;;
33491;SDS011;20010;51.488;7.232;2023-06-10T05:15:18;15.10;;;13.90;;
33491;SDS011;20010;51.488;7.232;2023-06-10T05:17:45;18.92;;;17.27;;
33491;SDS011;20010;51.488;7.232;2023-06-10T05:20:11;15.02;;;13.82;;
33491;SDS011;20010;51.488;7.232;2023-06-10T05:22:39;14.32;;;13.20;;
33491;SDS011;20010;51.488;7.232;2023-06-10T05:25:07;14.07;;;12.93;;
33491;SDS011;20010;51.488;7.232;2023-06-10T05:27:34;14.18;;;13.05;;
33491;SDS011;20010;51.488;7.232;2023-06-10T05:30:01;13.68;;;12.60;;
33491;SDS011;20010;51.488;7.232;2023-06-10T05:32:29;15.73;;;14.52;;
33491;SDS011;20010;51.488;7.232;2023-06-10T05:34:56;15.45;;;14.25;;
33491;SDS011;20010;51.488;7.232;2023-06-10T05:37:22;14.80;;;13.27;;
33491;SDS011;20010;51.488;7.232;2023-06-10T05:39:49;16.05;;;14.75;;
33491;SDS011;20010;51.488;7.232;2023-06-10T05:42:15;14.35;;;13.35;;
33491;SDS011;20010;51.488;7.232;2023-06-10T05:44:42;14.27;;;12.98;;
33491;SDS011;20010;51.488;7.232;2023-06-10T05:47:08;12.30;;;11.27;;
33491;SDS011;20010;51.488;7.232;2023-06-10T05:49:35;13.93;;;12.50;;
33491;SDS011;20010;51.488;7.232;2023-06-10T05:52:02;16.02;;;14.57;;
33491;SDS011;20010;51.488;7.232;2023-06-10T05:54:28;13.38;;;12.38;;
33491;SDS011;20010;51.488;7.232;2023-06-10T05:56:55;12.68;;;11.70;;
33491;SDS011;20010;51.488;7.232;2023-06-10T05:59:22;13.23;;;12.20;;
33491;SDS011;20010;51.488;7.232;2023-06-10T06:01:49;13.07;;;12.13;;
33491;SDS011;20010;51.488;7.232;2023-06-10T06:04:16;13.70;;;12.63;;
33491;SDS011;20010;51.488;7.232;2023-06-10T06:06:43;12.27;;;11.38;;
33491;SDS011;20010;51.488;7.232;2023-06-10T06:09:09;13.10;;;12.00;;
33491;SDS011;20010;51.488;7.232;2023-06-10T06:11:36;13.32;;;12.18;;
33491;SDS011;20010;51.488;7.232;2023-06-10T06:14:02;12.73;;;11.80;;
33491;SDS011;20010;51.488;7.232;2023-06-10T06:16:29;13.13;;;12.05;;
33491;SDS011;20010;51.488;7.232;2023-06-10T06:18:56;13.10;;;12.10;;
33491;SDS011;20010;51.488;7.232;2023-06-10T06:21:22;12.25;;;11.18;;
33491;SDS011;20010;51.488;7.232;2023-06-10T06:23:49;11.65;;;10.77;;
33491;SDS011;20010;51.488;7.232;2023-06-10T06:26:16;12.45;;;11.52;;
33491;SDS011;20010;51.488;7.232;2023-06-10T06:28:44;11.80;;;10.93;;
33491;SDS011;20010;51.488;7.232;2023-06-10T06:31:11;11.68;;;10.73;;
33491;SDS011;20010;51.488;7.232;2023-06-10T06:33:38;11.77;;;10.88;;
33491;SDS011;20010;51.488;7.232;2023-06-10T06:36:05;12.20;;;11.25;;
33491;SDS011;20010;51.488;7.232;2023-06-10T06:38:31;11.48;;;10.65;;
33491;SDS011;20010;51.488;7.232;2023-06-10T06:40:58;11.43;;;10.55;;
33491;SDS011;20010;51.488;7.232;2023-06-10T06:45:57;11.25;;;10.35;;
33491;SDS011;20010;51.488;7.232;2023-06-10T06:48:24;11.48;;;10.60;;
33491;SDS011;20010;51.488;7.232;2023-06-10T06:50:51;11.77;;;10.40;;
33491;SDS011;20010;51.488;7.232;2023-06-10T06:53:17;11.77;;;10.82;;
33491;SDS011;20010;51.488;7.232;2023-06-10T06:55:44;12.57;;;11.57;;
33491;SDS011;20010;51.488;7.232;2023-06-10T06:58:10;11.07;;;10.27;;
33491;SDS011;20010;51.488;7.232;2023-06-10T07:00:37;11.90;;;11.05;;
33491;SDS011;20010;51.488;7.232;2023-06-10T07:03:04;13.23;;;11.45;;
33491;SDS011;20010;51.488;7.232;2023-06-10T07:05:31;10.88;;;10.18;;
33491;SDS011;20010;51.488;7.232;2023-06-10T07:07:57;12.38;;;11.48;;
33491;SDS011;20010;51.488;7.232;2023-06-10T07:10:24;12.00;;;11.00;;
33491;SDS011;20010;51.488;7.232;2023-06-10T07:12:51;10.43;;;9.57;;
33491;SDS011;20010;51.488;7.232;2023-06-10T07:15:18;10.88;;;9.82;;
33491;SDS011;20010;51.488;7.232;2023-06-10T07:17:45;11.35;;;10.55;;
33491;SDS011;20010;51.488;7.232;2023-06-10T07:20:11;11.88;;;10.85;;
33491;SDS011;20010;51.488;7.232;2023-06-10T07:22:38;13.48;;;12.23;;
33491;SDS011;20010;51.488;7.232;2023-06-10T07:25:05;11.70;;;10.77;;
33491;SDS011;20010;51.488;7.232;2023-06-10T07:27:32;11.82;;;10.93;;
33491;SDS011;20010;51.488;7.232;2023-06-10T07:29:59;11.13;;;10.23;;
33491;SDS011;20010;51.488;7.232;2023-06-10T07:32:27;11.07;;;10.18;;
33491;SDS011;20010;51.488;7.232;2023-06-10T07:34:53;10.80;;;10.10;;
33491;SDS011;20010;51.488;7.232;2023-06-10T07:37:20;10.80;;;9.90;;
33491;SDS011;20010;51.488;7.232;2023-06-10T07:39:47;10.63;;;9.63;;
33491;SDS011;20010;51.488;7.232;2023-06-10T07:42:14;10.85;;;9.50;;
33491;SDS011;20010;51.488;7.232;2023-06-10T07:44:40;10.70;;;9.80;;
33491;SDS011;20010;51.488;7.232;2023-06-10T07:47:07;9.85;;;9.20;;
33491;SDS011;20010;51.488;7.232;2023-06-10T07:49:33;10.90;;;9.95;;
33491;SDS011;20010;51.488;7.232;2023-06-10T07:52:00;11.10;;;10.30;;
33491;SDS011;20010;51.488;7.232;2023-06-10T07:54:27;11.88;;;10.88;;
33491;SDS011;20010;51.488;7.232;2023-06-10T07:56:55;11.43;;;10.43;;
33491;SDS011;20010;51.488;7.232;2023-06-10T07:59:22;11.18;;;10.00;;
33491;SDS011;20010;51.488;7.232;2023-06-10T08:01:48;10.40;;;9.63;;
33491;SDS011;20010;51.488;7.232;2023-06-10T08:04:15;10.13;;;9.15;;
33491;SDS011;20010;51.488;7.232;2023-06-10T08:06:43;10.32;;;9.45;;
33491;SDS011;20010;51.488;7.232;2023-06-10T08:09:10;9.95;;;9.05;;
33491;SDS011;20010;51.488;7.232;2023-06-10T08:11:36;9.77;;;8.90;;
33491;SDS011;20010;51.488;7.232;2023-06-10T08:14:03;11.48;;;10.57;;
33491;SDS011;20010;51.488;7.232;2023-06-10T08:16:30;10.40;;;9.27;;
33491;SDS011;20010;51.488;7.232;2023-06-10T08:18:56;12.32;;;9.90;;
33491;SDS011;20010;51.488;7.232;2023-06-10T08:21:23;11.02;;;9.80;;
33491;SDS011;20010;51.488;7.232;2023-06-10T08:23:52;9.05;;;8.32;;
33491;SDS011;20010;51.488;7.232;2023-06-10T08:28:47;10.05;;;9.32;;
33491;SDS011;20010;51.488;7.232;2023-06-10T08:31:13;9.40;;;8.70;;
33491;SDS011;20010;51.488;7.232;2023-06-10T08:33:41;11.38;;;10.43;;
33491;SDS011;20010;51.488;7.232;2023-06-10T08:36:08;14.98;;;9.38;;
33491;SDS011;20010;51.488;7.232;2023-06-10T08:38:34;10.40;;;9.40;;
33491;SDS011;20010;51.488;7.232;2023-06-10T08:41:02;15.80;;;9.07;;
33491;SDS011;20010;51.488;7.232;2023-06-10T08:43:32;12.20;;;8.68;;
33491;SDS011;20010;51.488;7.232;2023-06-10T08:46:03;10.27;;;9.18;;
33491;SDS011;20010;51.488;7.232;2023-06-10T08:48:30;8.95;;;7.90;;
33491;SDS011;20010;51.488;7.232;2023-06-10T08:50:58;9.93;;;9.13;;
33491;SDS011;20010;51.488;7.232;2023-06-10T08:53:24;11.82;;;10.60;;
33491;SDS011;20010;51.488;7.232;2023-06-10T08:55:52;15.20;;;9.40;;
33491;SDS011;20010;51.488;7.232;2023-06-10T08:58:19;10.43;;;8.77;;
33491;SDS011;20010;51.488;7.232;2023-06-10T09:00:49;10.43;;;8.77;;
33491;SDS011;20010;51.488;7.232;2023-06-10T09:03:16;9.25;;;8.35;;
33491;SDS011;20010;51.488;7.232;2023-06-10T09:05:43;10.73;;;8.50;;
33491;SDS011;20010;51.488;7.232;2023-06-10T09:08:09;9.65;;;8.82;;
33491;SDS011;20010;51.488;7.232;2023-06-10T09:10:36;9.65;;;8.88;;
33491;SDS011;20010;51.488;7.232;2023-06-10T09:13:03;12.13;;;9.57;;
33491;SDS011;20010;51.488;7.232;2023-06-10T09:15:30;9.60;;;8.98;;
33491;SDS011;20010;51.488;7.232;2023-06-10T09:17:56;8.93;;;8.32;;
33491;SDS011;20010;51.488;7.232;2023-06-10T09:20:23;9.77;;;8.95;;
33491;SDS011;20010;51.488;7.232;2023-06-10T09:22:50;12.82;;;8.93;;
33491;SDS011;20010;51.488;7.232;2023-06-10T09:25:16;15.70;;;9.05;;
33491;SDS011;20010;51.488;7.232;2023-06-10T09:27:47;9.73;;;7.85;;
33491;SDS011;20010;51.488;7.232;2023-06-10T09:33:11;9.55;;;8.75;;
33491;SDS011;20010;51.488;7.232;2023-06-10T09:35:44;10.40;;;9.43;;
33491;SDS011;20010;51.488;7.232;2023-06-10T09:38:12;10.10;;;9.18;;
33491;SDS011;20010;51.488;7.232;2023-06-10T09:40:51;10.27;;;9.40;;
33491;SDS011;20010;51.488;7.232;2023-06-10T09:43:19;9.43;;;8.73;;
33491;SDS011;20010;51.488;7.232;2023-06-10T09:45:49;10.02;;;9.00;;
33491;SDS011;20010;51.488;7.232;2023-06-10T09:48:19;9.93;;;9.02;;
33491;SDS011;20010;51.488;7.232;2023-06-10T09:50:46;8.88;;;8.18;;
33491;SDS011;20010;51.488;7.232;2023-06-10T09:53:12;8.82;;;8.23;;
33491;SDS011;20010;51.488;7.232;2023-06-10T09:55:40;9.65;;;8.82;;
33491;SDS011;20010;51.488;7.232;2023-06-10T09:58:07;9.82;;;8.95;;
33491;SDS011;20010;51.488;7.232;2023-06-10T10:00:34;8.98;;;8.18;;
33491;SDS011;20010;51.488;7.232;2023-06-10T10:03:01;9.23;;;8.55;;
33491;SDS011;20010;51.488;7.232;2023-06-10T10:05:28;11.98;;;11.00;;
33491;SDS011;20010;51.488;7.232;2023-06-10T10:07:56;10.23;;;9.30;;
33491;SDS011;20010;51.488;7.232;2023-06-10T10:10:23;9.80;;;8.98;;
33491;SDS011;20010;51.488;7.232;2023-06-10T10:12:56;8.40;;;7.80;;
33491;SDS011;20010;51.488;7.232;2023-06-10T10:15:23;9.75;;;8.98;;
33491;SDS011;20010;51.488;7.232;2023-06-10T10:20:20;8.63;;;7.95;;
33491;SDS011;20010;51.488;7.232;2023-06-10T10:22:56;8.68;;;7.97;;
33491;SDS011;20010;51.488;7.232;2023-06-10T10:25:28;9.18;;;8.27;;
33491;SDS011;20010;51.488;7.232;2023-06-10T10:27:57;8.82;;;8.13;;
33491;SDS011;20010;51.488;7.232;2023-06-10T10:30:26;10.40;;;9.52;;
33491;SDS011;20010;51.488;7.232;2023-06-10T10:32:57;8.45;;;7.80;;
33491;SDS011;20010;51.488;7.232;2023-06-10T10:35:25;9.63;;;8.82;;
33491;SDS011;20010;51.488;7.232;2023-06-10T10:37:52;9.27;;;8.63;;
33491;SDS011;20010;51.488;7.232;2023-06-10T10:40:21;9.10;;;8.30;;
33491;SDS011;20010;51.488;7.232;2023-06-10T10:42:49;9.52;;;8.65;;
33491;SDS011;20010;51.488;7.232;2023-06-10T10:45:15;9.90;;;8.20;;
33491;SDS011;20010;51.488;7.232;2023-06-10T10:47:45;9.27;;;8.57;;
33491;SDS011;20010;51.488;7.232;2023-06-10T10:50:16;8.95;;;8.25;;
33491;SDS011;20010;51.488;7.232;2023-06-10T10:55:22;8.35;;;7.85;;
33491;SDS011;20010;51.488;7.232;2023-06-10T10:58:03;8.82;;;8.02;;
33491;SDS011;20010;51.488;7.232;2023-06-10T11:00:37;9.40;;;8.70;;
33491;SDS011;20010;51.488;7.232;2023-06-10T11:03:12;10.00;;;9.00;;
33491;SDS011;20010;51.488;7.232;2023-06-10T11:05:41;8.48;;;7.88;;
33491;SDS011;20010;51.488;7.232;2023-06-10T11:08:11;9.10;;;8.43;;
33491;SDS011;20010;51.488;7.232;2023-06-10T11:10:39;9.20;;;8.50;;
33491;SDS011;20010;51.488;7.232;2023-06-10T11:13:12;9.30;;;8.40;;
33491;SDS011;20010;51.488;7.232;2023-06-10T11:15:49;8.95;;;8.25;;
33491;SDS011;20010;51.488;7.232;2023-06-10T11:18:21;9.00;;;8.25;;
33491;SDS011;20010;51.488;7.232;2023-06-10T11:21:07;8.27;;;7.55;;
33491;SDS011;20010;51.488;7.232;2023-06-10T11:23:43;8.70;;;8.10;;
33491;SDS011;20010;51.488;7.232;2023-06-10T11:31:27;9.63;;;8.82;;
33491;SDS011;20010;51.488;7.232;2023-06-10T11:34:01;9.60;;;8.73;;
33491;SDS011;20010;51.488;7.232;2023-06-10T11:36:29;8.68;;;7.95;;
33491;SDS011;20010;51.488;7.232;2023-06-10T11:38:56;8.90;;;8.20;;
33491;SDS011;20010;51.488;7.232;2023-06-10T11:41:25;9.05;;;8.18;;
33491;SDS011;20010;51.488;7.232;2023-06-10T11:43:56;8.82;;;8.13;;
33491;SDS011;20010;51.488;7.232;2023-06-10T11:46:27;8.70;;;7.97;;
33491;SDS011;20010;51.488;7.232;2023-06-10T11:48:54;8.60;;;7.68;;
33491;SDS011;20010;51.488;7.232;2023-06-10T11:51:26;9.05;;;8.15;;
33491;SDS011;20010;51.488;7.232;2023-06-10T11:53:53;10.60;;;9.80;;
33491;SDS011;20010;51.488;7.232;2023-06-10T11:56:21;9.57;;;8.88;;
33491;SDS011;20010;51.488;7.232;2023-06-10T11:58:52;9.13;;;8.43;;
33491;SDS011;20010;51.488;7.232;2023-06-10T12:01:31;8.35;;;7.63;;
33491;SDS011;20010;51.488;7.232;2023-06-10T12:04:07;8.90;;;8.02;;
33491;SDS011;20010;51.488;7.232;2023-06-10T12:09:22;8.23;;;7.45;;
33491;SDS011;20010;51.488;7.232;2023-06-10T12:12:02;8.40;;;7.60;;
33491;SDS011;20010;51.488;7.232;2023-06-10T12:20:00;8.25;;;7.53;;
33491;SDS011;20010;51.488;7.232;2023-06-10T12:22:27;8.75;;;7.95;;
33491;SDS011;20010;51.488;7.232;2023-06-10T12:25:03;8.93;;;8.27;;
33491;SDS011;20010;51.488;7.232;2023-06-10T12:27:33;9.00;;;8.18;;
33491;SDS011;20010;51.488;7.232;2023-06-10T12:30:01;8.65;;;7.95;;
33491;SDS011;20010;51.488;7.232;2023-06-10T12:32:40;9.15;;;8.45;;
33491;SDS011;20010;51.488;7.232;2023-06-10T12:35:11;8.95;;;8.15;;
33491;SDS011;20010;51.488;7.232;2023-06-10T12:38:04;7.50;;;7.00;;
33491;SDS011;20010;51.488;7.232;2023-06-10T12:40:34;9.13;;;8.30;;
33491;SDS011;20010;51.488;7.232;2023-06-10T12:43:07;8.32;;;7.72;;
33491;SDS011;20010;51.488;7.232;2023-06-10T12:45:35;9.20;;;8.40;;
33491;SDS011;20010;51.488;7.232;2023-06-10T12:48:10;9.27;;;8.38;;
33491;SDS011;20010;51.488;7.232;2023-06-10T12:50:39;9.15;;;8.20;;
33491;SDS011;20010;51.488;7.232;2023-06-10T12:53:07;8.80;;;8.10;;
33491;SDS011;20010;51.488;7.232;2023-06-10T12:55:34;8.77;;;7.97;;
33491;SDS011;20010;51.488;7.232;2023-06-10T12:58:01;8.57;;;7.88;;
33491;SDS011;20010;51.488;7.232;2023-06-10T13:00:30;12.88;;;8.20;;
33491;SDS011;20010;51.488;7.232;2023-06-10T13:02:59;9.13;;;8.52;;
33491;SDS011;20010;51.488;7.232;2023-06-10T13:05:27;8.25;;;7.68;;
33491;SDS011;20010;51.488;7.232;2023-06-10T13:07:55;9.25;;;8.63;;
33491;SDS011;20010;51.488;7.232;2023-06-10T13:10:21;8.98;;;8.27;;
33491;SDS011;20010;51.488;7.232;2023-06-10T13:12:51;10.10;;;9.30;;
33491;SDS011;20010;51.488;7.232;2023-06-10T13:15:18;9.95;;;9.23;;
33491;SDS011;20010;51.488;7.232;2023-06-10T13:17:45;8.85;;;8.15;;
33491;SDS011;20010;51.488;7.232;2023-06-10T13:20:16;8.85;;;8.05;;
33491;SDS011;20010;51.488;7.232;2023-06-10T13:22:43;8.30;;;7.72;;
33491;SDS011;20010;51.488;7.232;2023-06-10T13:25:10;8.82;;;8.10;;
33491;SDS011;20010;51.488;7.232;2023-06-10T13:27:38;8.98;;;8.30;;
33491;SDS011;20010;51.488;7.232;2023-06-10T13:30:05;9.27;;;8.63;;
33491;SDS011;20010;51.488;7.232;2023-06-10T13:32:33;9.38;;;8.68;;
33491;SDS011;20010;51.488;7.232;2023-06-10T13:35:00;8.93;;;8.32;;
33491;SDS011;20010;51.488;7.232;2023-06-10T13:37:30;9.10;;;8.30;;
33491;SDS011;20010;51.488;7.232;2023-06-10T13:39:56;9.75;;;8.85;;
33491;SDS011;20010;51.488;7.232;2023-06-10T13:42:24;9.38;;;8.45;;
33491;SDS011;20010;51.488;7.232;2023-06-10T13:44:52;9.48;;;8.70;;
33491;SDS011;20010;51.488;7.232;2023-06-10T13:47:19;8.75;;;8.15;;
33491;SDS011;20010;51.488;7.232;2023-06-10T13:49:47;10.07;;;9.38;;
33491;SDS011;20010;51.488;7.232;2023-06-10T13:52:13;9.38;;;8.57;;
33491;SDS011;20010;51.488;7.232;2023-06-10T13:54:40;8.93;;;8.23;;
33491;SDS011;20010;51.488;7.232;2023-06-10T13:57:07;8.95;;;8.20;;
33491;SDS011;20010;51.488;7.232;2023-06-10T13:59:36;9.10;;;8.38;;
33491;SDS011;20010;51.488;7.232;2023-06-10T14:02:03;8.82;;;8.20;;
33491;SDS011;20010;51.488;7.232;2023-06-10T14:04:30;9.38;;;8.50;;
33491;SDS011;20010;51.488;7.232;2023-06-10T14:06:57;9.55;;;8.65;;
33491;SDS011;20010;51.488;7.232;2023-06-10T14:09:24;9.55;;;8.85;;
33491;SDS011;20010;51.488;7.232;2023-06-10T14:11:50;8.50;;;7.80;;
33491;SDS011;20010;51.488;7.232;2023-06-10T14:14:17;10.13;;;9.02;;
33491;SDS011;20010;51.488;7.232;2023-06-10T14:16:44;7.72;;;7.13;;
33491;SDS011;20010;51.488;7.232;2023-06-10T14:19:11;8.25;;;7.55;;
33491;SDS011;20010;51.488;7.232;2023-06-10T14:21:37;9.23;;;8.32;;
33491;SDS011;20010;51.488;7.232;2023-06-10T14:24:04;8.38;;;7.78;;
33491;SDS011;20010;51.488;7.232;2023-06-10T14:26:31;8.05;;;7.30;;
33491;SDS011;20010;51.488;7.232;2023-06-10T14:28:59;8.75;;;7.97;;
33491;SDS011;20010;51.488;7.232;2023-06-10T14:31:25;8.55;;;7.72;;
33491;SDS011;20010;51.488;7.232;2023-06-10T14:33:52;8.60;;;7.60;;
33491;SDS011;20010;51.488;7.232;2023-06-10T14:36:18;8.40;;;7.75;;
33491;SDS011;20010;51.488;7.232;2023-06-10T14:38:45;9.30;;;7.90;;
33491;SDS011;20010;51.488;7.232;2023-06-10T14:41:12;7.32;;;6.78;;
33491;SDS011;20010;51.488;7.232;2023-06-10T14:43:39;7.32;;;6.80;;
33491;SDS011;20010;51.488;7.232;2023-06-10T14:46:06;8.40;;;7.72;;
33491;SDS011;20010;51.488;7.232;2023-06-10T14:48:32;8.75;;;8.02;;
33491;SDS011;20010;51.488;7.232;2023-06-10T14:50:59;8.30;;;7.53;;
33491;SDS011;20010;51.488;7.232;2023-06-10T14:53:26;7.72;;;7.00;;
33491;SDS011;20010;51.488;7.232;2023-06-10T14:55:53;7.90;;;7.30;;
33491;SDS011;20010;51.488;7.232;2023-06-10T14:58:19;9.95;;;8.63;;
33491;SDS011;20010;51.488;7.232;2023-06-10T15:00:46;8.55;;;7.72;;
33491;SDS011;20010;51.488;7.232;2023-06-10T15:03:12;11.77;;;7.72;;
33491;SDS011;20010;51.488;7.232;2023-06-10T15:05:39;10.13;;;7.65;;
33491;SDS011;20010;51.488;7.232;2023-06-10T15:08:06;8.52;;;7.82;;